Terminal Aerodrome Forecast
Issued by NWS

Current Version | Previous Version | Text Only | Print | Product List | Glossary On
Versions: 1 2 3 4 5 6 7 8 9 10 11 12
000
FTUS43 KGRR 112300
TAFMKG
TAF
KMKG 112340Z 1200/1224 18005KT P6SM BKN150
     FM121400 20008KT P6SM VCSH BKN040
     FM121800 21008KT 5SM -SHRA BR OVC025=

USA.gov is the U.S. government's official web portal to all federal, state and local government web resources and services.